sensor_id;sensor_type;location;lat;lon;timestamp;P1;durP1;ratioP1;P2;durP2;ratioP2
54937;SDS011;52756;52.826;6.214;2023-09-19T00:00:29;6.22;;;1.55;;
54937;SDS011;52756;52.826;6.214;2023-09-19T00:02:56;8.30;;;1.70;;
54937;SDS011;52756;52.826;6.214;2023-09-19T00:05:27;6.75;;;1.42;;
54937;SDS011;52756;52.826;6.214;2023-09-19T00:07:55;6.63;;;1.60;;
54937;SDS011;52756;52.826;6.214;2023-09-19T00:10:30;6.00;;;1.95;;
54937;SDS011;52756;52.826;6.214;2023-09-19T00:12:57;7.77;;;1.97;;
54937;SDS011;52756;52.826;6.214;2023-09-19T00:15:30;3.88;;;1.38;;
54937;SDS011;52756;52.826;6.214;2023-09-19T00:18:01;8.18;;;1.90;;
54937;SDS011;52756;52.826;6.214;2023-09-19T00:20:27;9.93;;;1.50;;
54937;SDS011;52756;52.826;6.214;2023-09-19T00:22:54;5.38;;;1.70;;
54937;SDS011;52756;52.826;6.214;2023-09-19T00:25:20;6.88;;;1.77;;
54937;SDS011;52756;52.826;6.214;2023-09-19T00:27:46;6.75;;;1.52;;
54937;SDS011;52756;52.826;6.214;2023-09-19T00:30:16;9.00;;;2.33;;
54937;SDS011;52756;52.826;6.214;2023-09-19T00:32:46;8.88;;;1.73;;
54937;SDS011;52756;52.826;6.214;2023-09-19T00:35:16;5.82;;;1.73;;
54937;SDS011;52756;52.826;6.214;2023-09-19T00:37:42;6.32;;;1.63;;
54937;SDS011;52756;52.826;6.214;2023-09-19T00:40:08;6.20;;;1.90;;
54937;SDS011;52756;52.826;6.214;2023-09-19T00:42:38;6.28;;;1.85;;
54937;SDS011;52756;52.826;6.214;2023-09-19T00:45:06;7.63;;;2.13;;
54937;SDS011;52756;52.826;6.214;2023-09-19T00:47:35;5.32;;;1.90;;
54937;SDS011;52756;52.826;6.214;2023-09-19T00:50:03;6.70;;;2.20;;
54937;SDS011;52756;52.826;6.214;2023-09-19T00:52:32;5.18;;;1.70;;
54937;SDS011;52756;52.826;6.214;2023-09-19T00:55:01;5.30;;;1.60;;
54937;SDS011;52756;52.826;6.214;2023-09-19T00:57:28;6.60;;;1.52;;
54937;SDS011;52756;52.826;6.214;2023-09-19T00:59:58;6.93;;;1.90;;
54937;SDS011;52756;52.826;6.214;2023-09-19T01:02:24;7.25;;;2.10;;
54937;SDS011;52756;52.826;6.214;2023-09-19T01:04:53;8.43;;;2.15;;
54937;SDS011;52756;52.826;6.214;2023-09-19T01:07:20;7.43;;;2.30;;
54937;SDS011;52756;52.826;6.214;2023-09-19T01:09:47;6.60;;;1.98;;
54937;SDS011;52756;52.826;6.214;2023-09-19T01:12:15;6.32;;;1.90;;
54937;SDS011;52756;52.826;6.214;2023-09-19T01:14:55;6.35;;;1.52;;
54937;SDS011;52756;52.826;6.214;2023-09-19T01:17:30;5.43;;;1.88;;
54937;SDS011;52756;52.826;6.214;2023-09-19T01:22:52;4.75;;;1.88;;
54937;SDS011;52756;52.826;6.214;2023-09-19T01:30:40;6.80;;;1.92;;
54937;SDS011;52756;52.826;6.214;2023-09-19T01:33:08;4.95;;;1.65;;
54937;SDS011;52756;52.826;6.214;2023-09-19T01:35:37;4.43;;;1.30;;
54937;SDS011;52756;52.826;6.214;2023-09-19T01:38:04;5.88;;;2.05;;
54937;SDS011;52756;52.826;6.214;2023-09-19T01:40:34;8.75;;;1.85;;
54937;SDS011;52756;52.826;6.214;2023-09-19T01:43:32;4.00;;;1.50;;
54937;SDS011;52756;52.826;6.214;2023-09-19T01:48:52;5.45;;;1.50;;
54937;SDS011;52756;52.826;6.214;2023-09-19T01:51:37;6.03;;;1.77;;
54937;SDS011;52756;52.826;6.214;2023-09-19T01:54:12;4.50;;;1.75;;
54937;SDS011;52756;52.826;6.214;2023-09-19T01:56:52;4.78;;;1.50;;
54937;SDS011;52756;52.826;6.214;2023-09-19T01:59:47;5.57;;;1.65;;
54937;SDS011;52756;52.826;6.214;2023-09-19T02:02:17;9.73;;;1.73;;
54937;SDS011;52756;52.826;6.214;2023-09-19T02:04:47;7.82;;;1.83;;
54937;SDS011;52756;52.826;6.214;2023-09-19T02:07:14;5.90;;;1.85;;
54937;SDS011;52756;52.826;6.214;2023-09-19T02:09:40;6.15;;;1.75;;
54937;SDS011;52756;52.826;6.214;2023-09-19T02:12:08;7.40;;;1.75;;
54937;SDS011;52756;52.826;6.214;2023-09-19T02:14:34;7.28;;;1.40;;
54937;SDS011;52756;52.826;6.214;2023-09-19T02:17:01;6.22;;;1.73;;
54937;SDS011;52756;52.826;6.214;2023-09-19T02:19:32;9.75;;;2.50;;
54937;SDS011;52756;52.826;6.214;2023-09-19T02:21:59;8.70;;;2.40;;
54937;SDS011;52756;52.826;6.214;2023-09-19T02:24:25;8.75;;;2.10;;
54937;SDS011;52756;52.826;6.214;2023-09-19T02:26:51;6.50;;;1.50;;
54937;SDS011;52756;52.826;6.214;2023-09-19T02:29:17;4.40;;;1.95;;
54937;SDS011;52756;52.826;6.214;2023-09-19T02:31:43;5.93;;;1.67;;
54937;SDS011;52756;52.826;6.214;2023-09-19T02:34:11;4.35;;;1.60;;
54937;SDS011;52756;52.826;6.214;2023-09-19T02:36:37;7.85;;;1.80;;
54937;SDS011;52756;52.826;6.214;2023-09-19T02:39:02;7.65;;;2.08;;
54937;SDS011;52756;52.826;6.214;2023-09-19T02:41:30;5.95;;;1.60;;
54937;SDS011;52756;52.826;6.214;2023-09-19T02:43:58;5.80;;;1.98;;
54937;SDS011;52756;52.826;6.214;2023-09-19T02:46:24;5.80;;;2.03;;
54937;SDS011;52756;52.826;6.214;2023-09-19T02:48:50;6.88;;;1.92;;
54937;SDS011;52756;52.826;6.214;2023-09-19T02:51:15;6.05;;;2.28;;
54937;SDS011;52756;52.826;6.214;2023-09-19T02:53:41;4.28;;;1.63;;
54937;SDS011;52756;52.826;6.214;2023-09-19T02:56:07;6.25;;;1.50;;
54937;SDS011;52756;52.826;6.214;2023-09-19T02:58:34;7.20;;;1.98;;
54937;SDS011;52756;52.826;6.214;2023-09-19T03:01:07;10.65;;;1.90;;
54937;SDS011;52756;52.826;6.214;2023-09-19T03:03:33;6.30;;;1.80;;
54937;SDS011;52756;52.826;6.214;2023-09-19T03:05:59;7.63;;;2.58;;
54937;SDS011;52756;52.826;6.214;2023-09-19T03:08:29;6.05;;;2.25;;
54937;SDS011;52756;52.826;6.214;2023-09-19T03:10:55;7.38;;;2.03;;
54937;SDS011;52756;52.826;6.214;2023-09-19T03:13:21;3.80;;;1.55;;
54937;SDS011;52756;52.826;6.214;2023-09-19T03:15:46;4.72;;;1.58;;
54937;SDS011;52756;52.826;6.214;2023-09-19T03:18:14;5.90;;;1.73;;
54937;SDS011;52756;52.826;6.214;2023-09-19T03:20:40;10.75;;;2.28;;
54937;SDS011;52756;52.826;6.214;2023-09-19T03:23:06;3.25;;;1.30;;
54937;SDS011;52756;52.826;6.214;2023-09-19T03:25:36;7.25;;;2.05;;
54937;SDS011;52756;52.826;6.214;2023-09-19T03:28:02;11.10;;;2.03;;
54937;SDS011;52756;52.826;6.214;2023-09-19T03:30:32;9.02;;;2.42;;
54937;SDS011;52756;52.826;6.214;2023-09-19T03:32:58;4.13;;;1.60;;
54937;SDS011;52756;52.826;6.214;2023-09-19T03:35:24;6.55;;;2.03;;
54937;SDS011;52756;52.826;6.214;2023-09-19T03:37:50;8.43;;;2.35;;
54937;SDS011;52756;52.826;6.214;2023-09-19T03:40:17;6.05;;;1.40;;
54937;SDS011;52756;52.826;6.214;2023-09-19T03:42:45;7.15;;;2.15;;
54937;SDS011;52756;52.826;6.214;2023-09-19T03:45:11;7.10;;;2.38;;
54937;SDS011;52756;52.826;6.214;2023-09-19T03:47:38;6.03;;;2.22;;
54937;SDS011;52756;52.826;6.214;2023-09-19T03:50:04;7.78;;;1.95;;
54937;SDS011;52756;52.826;6.214;2023-09-19T03:52:32;6.78;;;2.10;;
54937;SDS011;52756;52.826;6.214;2023-09-19T03:54:58;4.20;;;1.67;;
54937;SDS011;52756;52.826;6.214;2023-09-19T03:57:23;9.43;;;2.15;;
54937;SDS011;52756;52.826;6.214;2023-09-19T03:59:49;8.48;;;1.50;;
54937;SDS011;52756;52.826;6.214;2023-09-19T04:02:18;6.75;;;1.60;;
54937;SDS011;52756;52.826;6.214;2023-09-19T04:04:53;5.25;;;2.08;;
54937;SDS011;52756;52.826;6.214;2023-09-19T04:07:18;7.47;;;1.63;;
54937;SDS011;52756;52.826;6.214;2023-09-19T04:09:47;5.90;;;2.10;;
54937;SDS011;52756;52.826;6.214;2023-09-19T04:12:14;6.00;;;1.98;;
54937;SDS011;52756;52.826;6.214;2023-09-19T04:14:42;7.55;;;1.90;;
54937;SDS011;52756;52.826;6.214;2023-09-19T04:17:08;5.32;;;1.63;;
54937;SDS011;52756;52.826;6.214;2023-09-19T04:19:34;6.93;;;2.03;;
54937;SDS011;52756;52.826;6.214;2023-09-19T04:22:00;6.57;;;1.77;;
54937;SDS011;52756;52.826;6.214;2023-09-19T04:24:26;4.20;;;1.92;;
54937;SDS011;52756;52.826;6.214;2023-09-19T04:26:52;7.00;;;1.55;;
54937;SDS011;52756;52.826;6.214;2023-09-19T04:29:17;6.65;;;2.05;;
54937;SDS011;52756;52.826;6.214;2023-09-19T04:31:44;11.52;;;2.42;;
54937;SDS011;52756;52.826;6.214;2023-09-19T04:34:11;4.63;;;1.73;;
54937;SDS011;52756;52.826;6.214;2023-09-19T04:36:42;4.63;;;1.55;;
54937;SDS011;52756;52.826;6.214;2023-09-19T04:39:08;6.68;;;2.03;;
54937;SDS011;52756;52.826;6.214;2023-09-19T04:41:37;4.95;;;1.95;;
54937;SDS011;52756;52.826;6.214;2023-09-19T04:44:05;3.53;;;1.50;;
54937;SDS011;52756;52.826;6.214;2023-09-19T04:46:32;6.75;;;1.85;;
54937;SDS011;52756;52.826;6.214;2023-09-19T04:48:58;7.35;;;1.95;;
54937;SDS011;52756;52.826;6.214;2023-09-19T04:51:24;8.68;;;2.33;;
54937;SDS011;52756;52.826;6.214;2023-09-19T04:53:51;9.30;;;2.45;;
54937;SDS011;52756;52.826;6.214;2023-09-19T04:56:17;8.85;;;2.30;;
54937;SDS011;52756;52.826;6.214;2023-09-19T04:58:44;10.00;;;2.40;;
54937;SDS011;52756;52.826;6.214;2023-09-19T05:01:09;9.25;;;1.88;;
54937;SDS011;52756;52.826;6.214;2023-09-19T05:03:37;10.75;;;2.50;;
54937;SDS011;52756;52.826;6.214;2023-09-19T05:06:03;12.65;;;2.70;;
54937;SDS011;52756;52.826;6.214;2023-09-19T05:08:30;7.93;;;2.45;;
54937;SDS011;52756;52.826;6.214;2023-09-19T05:10:56;9.23;;;2.15;;
54937;SDS011;52756;52.826;6.214;2023-09-19T05:13:21;9.43;;;2.40;;
54937;SDS011;52756;52.826;6.214;2023-09-19T05:15:50;9.02;;;2.53;;
54937;SDS011;52756;52.826;6.214;2023-09-19T05:18:16;7.18;;;1.83;;
54937;SDS011;52756;52.826;6.214;2023-09-19T05:20:41;9.05;;;1.80;;
54937;SDS011;52756;52.826;6.214;2023-09-19T05:23:08;8.38;;;2.28;;
54937;SDS011;52756;52.826;6.214;2023-09-19T05:25:35;5.85;;;2.00;;
54937;SDS011;52756;52.826;6.214;2023-09-19T05:28:08;6.78;;;2.25;;
54937;SDS011;52756;52.826;6.214;2023-09-19T05:30:35;5.43;;;1.85;;
54937;SDS011;52756;52.826;6.214;2023-09-19T05:33:02;7.28;;;2.22;;
54937;SDS011;52756;52.826;6.214;2023-09-19T05:35:29;9.10;;;2.20;;
54937;SDS011;52756;52.826;6.214;2023-09-19T05:37:55;5.78;;;1.70;;
54937;SDS011;52756;52.826;6.214;2023-09-19T05:40:23;7.72;;;2.13;;
54937;SDS011;52756;52.826;6.214;2023-09-19T05:42:49;8.82;;;1.98;;
54937;SDS011;52756;52.826;6.214;2023-09-19T05:45:15;7.25;;;2.30;;
54937;SDS011;52756;52.826;6.214;2023-09-19T05:47:47;6.40;;;1.80;;
54937;SDS011;52756;52.826;6.214;2023-09-19T05:50:15;6.95;;;1.73;;
54937;SDS011;52756;52.826;6.214;2023-09-19T05:52:41;7.53;;;2.15;;
54937;SDS011;52756;52.826;6.214;2023-09-19T05:55:09;8.57;;;2.50;;
54937;SDS011;52756;52.826;6.214;2023-09-19T05:57:36;10.65;;;2.40;;
54937;SDS011;52756;52.826;6.214;2023-09-19T06:00:04;7.45;;;1.90;;
54937;SDS011;52756;52.826;6.214;2023-09-19T06:02:36;6.03;;;2.35;;
54937;SDS011;52756;52.826;6.214;2023-09-19T06:05:03;10.57;;;3.10;;
54937;SDS011;52756;52.826;6.214;2023-09-19T06:07:31;11.45;;;3.30;;
54937;SDS011;52756;52.826;6.214;2023-09-19T06:10:03;10.43;;;2.92;;
54937;SDS011;52756;52.826;6.214;2023-09-19T06:12:32;10.48;;;2.10;;
54937;SDS011;52756;52.826;6.214;2023-09-19T06:15:00;9.35;;;2.13;;
54937;SDS011;52756;52.826;6.214;2023-09-19T06:17:26;6.47;;;2.20;;
54937;SDS011;52756;52.826;6.214;2023-09-19T06:19:53;8.13;;;2.20;;
54937;SDS011;52756;52.826;6.214;2023-09-19T06:22:20;11.02;;;2.60;;
54937;SDS011;52756;52.826;6.214;2023-09-19T06:24:49;10.50;;;2.83;;
54937;SDS011;52756;52.826;6.214;2023-09-19T06:27:15;11.73;;;2.90;;
54937;SDS011;52756;52.826;6.214;2023-09-19T06:29:41;12.25;;;2.83;;
54937;SDS011;52756;52.826;6.214;2023-09-19T06:32:10;9.60;;;2.75;;
54937;SDS011;52756;52.826;6.214;2023-09-19T06:34:36;10.27;;;2.30;;
54937;SDS011;52756;52.826;6.214;2023-09-19T06:37:04;7.90;;;2.30;;
54937;SDS011;52756;52.826;6.214;2023-09-19T06:39:31;7.97;;;2.50;;
54937;SDS011;52756;52.826;6.214;2023-09-19T06:41:57;8.05;;;1.92;;
54937;SDS011;52756;52.826;6.214;2023-09-19T06:44:23;11.38;;;2.65;;
54937;SDS011;52756;52.826;6.214;2023-09-19T06:46:50;10.07;;;2.90;;
54937;SDS011;52756;52.826;6.214;2023-09-19T06:49:16;9.40;;;2.20;;
54937;SDS011;52756;52.826;6.214;2023-09-19T06:51:42;11.15;;;2.03;;
54937;SDS011;52756;52.826;6.214;2023-09-19T06:54:09;15.48;;;3.20;;
54937;SDS011;52756;52.826;6.214;2023-09-19T06:56:35;9.13;;;2.40;;
54937;SDS011;52756;52.826;6.214;2023-09-19T06:59:00;11.55;;;2.15;;
54937;SDS011;52756;52.826;6.214;2023-09-19T07:01:27;9.00;;;2.72;;
54937;SDS011;52756;52.826;6.214;2023-09-19T07:03:53;7.25;;;2.30;;
54937;SDS011;52756;52.826;6.214;2023-09-19T07:06:19;7.13;;;2.35;;
54937;SDS011;52756;52.826;6.214;2023-09-19T07:08:45;14.05;;;2.97;;
54937;SDS011;52756;52.826;6.214;2023-09-19T07:11:11;8.38;;;2.55;;
54937;SDS011;52756;52.826;6.214;2023-09-19T07:13:37;10.15;;;2.30;;
54937;SDS011;52756;52.826;6.214;2023-09-19T07:16:04;9.82;;;2.97;;
54937;SDS011;52756;52.826;6.214;2023-09-19T07:18:30;9.00;;;2.50;;
54937;SDS011;52756;52.826;6.214;2023-09-19T07:20:57;9.25;;;2.53;;
54937;SDS011;52756;52.826;6.214;2023-09-19T07:23:26;13.20;;;3.15;;
54937;SDS011;52756;52.826;6.214;2023-09-19T07:25:52;8.13;;;2.40;;
54937;SDS011;52756;52.826;6.214;2023-09-19T07:28:21;8.63;;;2.33;;
54937;SDS011;52756;52.826;6.214;2023-09-19T07:30:47;8.35;;;3.03;;
54937;SDS011;52756;52.826;6.214;2023-09-19T07:33:13;8.77;;;2.35;;
54937;SDS011;52756;52.826;6.214;2023-09-19T07:35:39;11.07;;;2.83;;
54937;SDS011;52756;52.826;6.214;2023-09-19T07:38:06;13.13;;;2.88;;
54937;SDS011;52756;52.826;6.214;2023-09-19T07:40:32;9.00;;;2.67;;
54937;SDS011;52756;52.826;6.214;2023-09-19T07:42:59;8.90;;;2.25;;
54937;SDS011;52756;52.826;6.214;2023-09-19T07:45:28;10.32;;;2.80;;
54937;SDS011;52756;52.826;6.214;2023-09-19T07:47:55;10.48;;;3.15;;
54937;SDS011;52756;52.826;6.214;2023-09-19T07:50:21;6.57;;;2.25;;
54937;SDS011;52756;52.826;6.214;2023-09-19T07:52:47;9.93;;;2.67;;
54937;SDS011;52756;52.826;6.214;2023-09-19T07:55:16;9.30;;;2.75;;
54937;SDS011;52756;52.826;6.214;2023-09-19T07:57:42;11.73;;;3.40;;
54937;SDS011;52756;52.826;6.214;2023-09-19T08:00:09;13.25;;;2.97;;
54937;SDS011;52756;52.826;6.214;2023-09-19T08:02:36;10.93;;;2.83;;
54937;SDS011;52756;52.826;6.214;2023-09-19T08:05:05;10.30;;;3.00;;
54937;SDS011;52756;52.826;6.214;2023-09-19T08:07:35;12.88;;;3.13;;
54937;SDS011;52756;52.826;6.214;2023-09-19T08:10:02;8.95;;;2.85;;
54937;SDS011;52756;52.826;6.214;2023-09-19T08:12:36;9.23;;;2.40;;
54937;SDS011;52756;52.826;6.214;2023-09-19T08:15:02;12.13;;;2.85;;
54937;SDS011;52756;52.826;6.214;2023-09-19T08:17:28;10.55;;;2.47;;
54937;SDS011;52756;52.826;6.214;2023-09-19T08:19:58;9.15;;;2.22;;
54937;SDS011;52756;52.826;6.214;2023-09-19T08:22:25;8.43;;;3.17;;
54937;SDS011;52756;52.826;6.214;2023-09-19T08:24:51;13.35;;;3.50;;
54937;SDS011;52756;52.826;6.214;2023-09-19T08:27:17;11.88;;;3.55;;
54937;SDS011;52756;52.826;6.214;2023-09-19T08:29:44;10.45;;;3.45;;
54937;SDS011;52756;52.826;6.214;2023-09-19T08:32:11;11.75;;;3.25;;
54937;SDS011;52756;52.826;6.214;2023-09-19T08:34:37;9.57;;;2.55;;
54937;SDS011;52756;52.826;6.214;2023-09-19T08:37:03;8.30;;;2.33;;
54937;SDS011;52756;52.826;6.214;2023-09-19T08:39:29;9.00;;;3.28;;
54937;SDS011;52756;52.826;6.214;2023-09-19T08:41:58;11.23;;;2.80;;
54937;SDS011;52756;52.826;6.214;2023-09-19T08:44:25;8.10;;;2.90;;
54937;SDS011;52756;52.826;6.214;2023-09-19T08:46:53;15.85;;;3.65;;
54937;SDS011;52756;52.826;6.214;2023-09-19T08:52:27;9.80;;;3.25;;
54937;SDS011;52756;52.826;6.214;2023-09-19T08:55:01;11.27;;;3.13;;
54937;SDS011;52756;52.826;6.214;2023-09-19T08:57:32;12.95;;;3.33;;
54937;SDS011;52756;52.826;6.214;2023-09-19T09:00:01;10.32;;;3.13;;
54937;SDS011;52756;52.826;6.214;2023-09-19T09:02:30;12.40;;;3.65;;
54937;SDS011;52756;52.826;6.214;2023-09-19T09:04:59;9.73;;;2.78;;
54937;SDS011;52756;52.826;6.214;2023-09-19T09:07:25;9.63;;;3.78;;
54937;SDS011;52756;52.826;6.214;2023-09-19T09:09:53;10.50;;;3.85;;
54937;SDS011;52756;52.826;6.214;2023-09-19T09:12:19;8.85;;;3.47;;
54937;SDS011;52756;52.826;6.214;2023-09-19T09:14:45;10.23;;;2.92;;
54937;SDS011;52756;52.826;6.214;2023-09-19T09:17:13;10.63;;;2.70;;
54937;SDS011;52756;52.826;6.214;2023-09-19T09:19:40;11.27;;;2.65;;
54937;SDS011;52756;52.826;6.214;2023-09-19T09:22:09;9.50;;;2.78;;
54937;SDS011;52756;52.826;6.214;2023-09-19T09:24:36;11.30;;;3.42;;
54937;SDS011;52756;52.826;6.214;2023-09-19T09:27:05;10.50;;;2.75;;
54937;SDS011;52756;52.826;6.214;2023-09-19T09:29:45;10.65;;;3.10;;
54937;SDS011;52756;52.826;6.214;2023-09-19T09:34:48;9.57;;;2.73;;
54937;SDS011;52756;52.826;6.214;2023-09-19T09:39:51;11.35;;;3.78;;
54937;SDS011;52756;52.826;6.214;2023-09-19T09:42:28;9.77;;;2.70;;
54937;SDS011;52756;52.826;6.214;2023-09-19T09:48:00;14.75;;;2.90;;
54937;SDS011;52756;52.826;6.214;2023-09-19T09:50:39;9.48;;;2.85;;
54937;SDS011;52756;52.826;6.214;2023-09-19T09:53:27;8.75;;;2.75;;
54937;SDS011;52756;52.826;6.214;2023-09-19T09:55:57;11.95;;;3.33;;
54937;SDS011;52756;52.826;6.214;2023-09-19T10:01:00;11.88;;;3.15;;
54937;SDS011;52756;52.826;6.214;2023-09-19T10:03:37;8.60;;;2.70;;
54937;SDS011;52756;52.826;6.214;2023-09-19T10:06:10;11.20;;;3.22;;
54937;SDS011;52756;52.826;6.214;2023-09-19T10:11:57;9.45;;;3.03;;
54937;SDS011;52756;52.826;6.214;2023-09-19T10:14:33;13.00;;;3.20;;
54937;SDS011;52756;52.826;6.214;2023-09-19T10:17:06;12.65;;;3.25;;
54937;SDS011;52756;52.826;6.214;2023-09-19T10:19:54;10.65;;;2.65;;
54937;SDS011;52756;52.826;6.214;2023-09-19T10:22:22;12.23;;;2.92;;
54937;SDS011;52756;52.826;6.214;2023-09-19T10:24:49;13.32;;;4.03;;
54937;SDS011;52756;52.826;6.214;2023-09-19T10:27:21;11.57;;;3.20;;
54937;SDS011;52756;52.826;6.214;2023-09-19T10:29:51;10.35;;;2.60;;
54937;SDS011;52756;52.826;6.214;2023-09-19T10:32:22;10.88;;;3.20;;
54937;SDS011;52756;52.826;6.214;2023-09-19T10:34:48;11.15;;;2.58;;
54937;SDS011;52756;52.826;6.214;2023-09-19T10:37:18;12.50;;;3.78;;
54937;SDS011;52756;52.826;6.214;2023-09-19T10:39:47;12.75;;;3.42;;
54937;SDS011;52756;52.826;6.214;2023-09-19T10:42:16;8.55;;;2.85;;
54937;SDS011;52756;52.826;6.214;2023-09-19T10:44:45;12.85;;;3.88;;
54937;SDS011;52756;52.826;6.214;2023-09-19T10:47:15;8.25;;;3.13;;
54937;SDS011;52756;52.826;6.214;2023-09-19T10:49:44;10.30;;;3.25;;
54937;SDS011;52756;52.826;6.214;2023-09-19T10:52:17;11.68;;;3.25;;
54937;SDS011;52756;52.826;6.214;2023-09-19T10:54:48;13.02;;;3.45;;
54937;SDS011;52756;52.826;6.214;2023-09-19T10:57:23;9.38;;;2.60;;
54937;SDS011;52756;52.826;6.214;2023-09-19T11:05:36;12.30;;;2.85;;
54937;SDS011;52756;52.826;6.214;2023-09-19T11:08:09;9.75;;;2.67;;
54937;SDS011;52756;52.826;6.214;2023-09-19T11:10:50;12.35;;;3.38;;
54937;SDS011;52756;52.826;6.214;2023-09-19T11:13:29;7.80;;;2.63;;
54937;SDS011;52756;52.826;6.214;2023-09-19T11:26:51;8.00;;;2.45;;
54937;SDS011;52756;52.826;6.214;2023-09-19T11:29:33;10.90;;;2.47;;
54937;SDS011;52756;52.826;6.214;2023-09-19T11:32:01;10.70;;;2.97;;
54937;SDS011;52756;52.826;6.214;2023-09-19T11:34:48;11.50;;;2.58;;
54937;SDS011;52756;52.826;6.214;2023-09-19T11:42:42;10.23;;;2.50;;
54937;SDS011;52756;52.826;6.214;2023-09-19T11:48:15;12.25;;;2.53;;
54937;SDS011;52756;52.826;6.214;2023-09-19T11:50:43;14.77;;;3.88;;
54937;SDS011;52756;52.826;6.214;2023-09-19T11:53:11;9.48;;;2.42;;
54937;SDS011;52756;52.826;6.214;2023-09-19T11:55:38;8.40;;;2.72;;
54937;SDS011;52756;52.826;6.214;2023-09-19T11:58:09;9.30;;;2.53;;
54937;SDS011;52756;52.826;6.214;2023-09-19T12:00:38;8.40;;;2.15;;
54937;SDS011;52756;52.826;6.214;2023-09-19T12:03:08;8.70;;;2.42;;
54937;SDS011;52756;52.826;6.214;2023-09-19T12:05:35;8.13;;;2.15;;
54937;SDS011;52756;52.826;6.214;2023-09-19T12:08:02;8.27;;;2.65;;
54937;SDS011;52756;52.826;6.214;2023-09-19T12:10:34;11.07;;;2.97;;
54937;SDS011;52756;52.826;6.214;2023-09-19T12:13:16;8.90;;;2.63;;
54937;SDS011;52756;52.826;6.214;2023-09-19T12:15:43;9.75;;;2.50;;
54937;SDS011;52756;52.826;6.214;2023-09-19T12:18:25;9.23;;;2.30;;
54937;SDS011;52756;52.826;6.214;2023-09-19T12:20:52;10.35;;;2.90;;
54937;SDS011;52756;52.826;6.214;2023-09-19T12:23:19;7.15;;;2.08;;
54937;SDS011;52756;52.826;6.214;2023-09-19T12:25:46;7.03;;;2.03;;
54937;SDS011;52756;52.826;6.214;2023-09-19T12:28:12;9.13;;;2.28;;
54937;SDS011;52756;52.826;6.214;2023-09-19T12:30:41;8.05;;;2.28;;
54937;SDS011;52756;52.826;6.214;2023-09-19T12:33:15;6.50;;;2.25;;
54937;SDS011;52756;52.826;6.214;2023-09-19T12:35:50;8.85;;;2.28;;
54937;SDS011;52756;52.826;6.214;2023-09-19T12:38:27;9.25;;;2.17;;
54937;SDS011;52756;52.826;6.214;2023-09-19T12:40:55;9.65;;;2.15;;
54937;SDS011;52756;52.826;6.214;2023-09-19T12:43:21;9.85;;;2.50;;
54937;SDS011;52756;52.826;6.214;2023-09-19T12:45:48;8.77;;;2.42;;
54937;SDS011;52756;52.826;6.214;2023-09-19T12:53:56;9.02;;;2.53;;
54937;SDS011;52756;52.826;6.214;2023-09-19T12:56:23;9.02;;;2.38;;
54937;SDS011;52756;52.826;6.214;2023-09-19T12:58:52;8.30;;;1.77;;
54937;SDS011;52756;52.826;6.214;2023-09-19T13:01:24;6.40;;;1.80;;
54937;SDS011;52756;52.826;6.214;2023-09-19T13:04:13;9.77;;;1.98;;
54937;SDS011;52756;52.826;6.214;2023-09-19T13:06:47;5.03;;;1.92;;
54937;SDS011;52756;52.826;6.214;2023-09-19T13:09:14;5.18;;;1.90;;
54937;SDS011;52756;52.826;6.214;2023-09-19T13:11:41;7.95;;;1.70;;
54937;SDS011;52756;52.826;6.214;2023-09-19T13:14:25;9.07;;;2.33;;
54937;SDS011;52756;52.826;6.214;2023-09-19T13:19:36;7.47;;;2.03;;
54937;SDS011;52756;52.826;6.214;2023-09-19T13:22:50;6.78;;;1.80;;
54937;SDS011;52756;52.826;6.214;2023-09-19T13:25:12;8.63;;;2.28;;
54937;SDS011;52756;52.826;6.214;2023-09-19T13:27:49;7.25;;;1.90;;
54937;SDS011;52756;52.826;6.214;2023-09-19T13:30:17;6.60;;;1.75;;
54937;SDS011;52756;52.826;6.214;2023-09-19T13:32:44;5.70;;;1.58;;
54937;SDS011;52756;52.826;6.214;2023-09-19T13:35:12;7.32;;;1.45;;
54937;SDS011;52756;52.826;6.214;2023-09-19T13:37:39;6.93;;;1.80;;
54937;SDS011;52756;52.826;6.214;2023-09-19T13:40:09;8.02;;;1.42;;
54937;SDS011;52756;52.826;6.214;2023-09-19T13:42:37;5.35;;;1.52;;
54937;SDS011;52756;52.826;6.214;2023-09-19T13:45:04;6.80;;;1.52;;
54937;SDS011;52756;52.826;6.214;2023-09-19T13:47:30;4.80;;;1.70;;
54937;SDS011;52756;52.826;6.214;2023-09-19T13:49:57;6.22;;;1.75;;
54937;SDS011;52756;52.826;6.214;2023-09-19T13:52:23;6.65;;;1.50;;
54937;SDS011;52756;52.826;6.214;2023-09-19T13:54:53;7.72;;;1.80;;
54937;SDS011;52756;52.826;6.214;2023-09-19T13:57:21;6.07;;;1.60;;
54937;SDS011;52756;52.826;6.214;2023-09-19T13:59:48;8.52;;;1.67;;
54937;SDS011;52756;52.826;6.214;2023-09-19T14:02:13;6.72;;;1.52;;
54937;SDS011;52756;52.826;6.214;2023-09-19T14:04:39;5.60;;;1.90;;
54937;SDS011;52756;52.826;6.214;2023-09-19T14:07:06;7.60;;;1.63;;
54937;SDS011;52756;52.826;6.214;2023-09-19T14:09:32;6.22;;;1.60;;
54937;SDS011;52756;52.826;6.214;2023-09-19T14:11:59;5.32;;;1.48;;
54937;SDS011;52756;52.826;6.214;2023-09-19T14:14:24;5.55;;;1.58;;
54937;SDS011;52756;52.826;6.214;2023-09-19T14:16:50;7.05;;;1.83;;
54937;SDS011;52756;52.826;6.214;2023-09-19T14:19:18;5.45;;;1.33;;
54937;SDS011;52756;52.826;6.214;2023-09-19T14:21:43;9.15;;;1.40;;
54937;SDS011;52756;52.826;6.214;2023-09-19T14:24:09;7.13;;;2.17;;
54937;SDS011;52756;52.826;6.214;2023-09-19T14:26:35;7.07;;;1.48;;
54937;SDS011;52756;52.826;6.214;2023-09-19T14:29:01;4.53;;;1.77;;
54937;SDS011;52756;52.826;6.214;2023-09-19T14:31:27;3.95;;;1.55;;
54937;SDS011;52756;52.826;6.214;2023-09-19T14:33:57;6.10;;;1.95;;
54937;SDS011;52756;52.826;6.214;2023-09-19T14:36:24;6.38;;;1.33;;
54937;SDS011;52756;52.826;6.214;2023-09-19T14:38:54;4.65;;;1.35;;
54937;SDS011;52756;52.826;6.214;2023-09-19T14:41:22;6.90;;;1.30;;
54937;SDS011;52756;52.826;6.214;2023-09-19T14:43:50;6.15;;;1.50;;
54937;SDS011;52756;52.826;6.214;2023-09-19T14:46:16;4.68;;;1.30;;
54937;SDS011;52756;52.826;6.214;2023-09-19T14:48:43;7.00;;;1.73;;
54937;SDS011;52756;52.826;6.214;2023-09-19T14:51:12;4.07;;;1.45;;
54937;SDS011;52756;52.826;6.214;2023-09-19T14:53:39;8.88;;;1.48;;
54937;SDS011;52756;52.826;6.214;2023-09-19T14:56:07;5.43;;;1.42;;
54937;SDS011;52756;52.826;6.214;2023-09-19T14:58:34;4.20;;;1.20;;
54937;SDS011;52756;52.826;6.214;2023-09-19T15:03:34;5.07;;;1.33;;
54937;SDS011;52756;52.826;6.214;2023-09-19T15:06:04;5.40;;;1.83;;
54937;SDS011;52756;52.826;6.214;2023-09-19T15:08:31;7.35;;;1.30;;
54937;SDS011;52756;52.826;6.214;2023-09-19T15:10:59;5.35;;;1.45;;
54937;SDS011;52756;52.826;6.214;2023-09-19T15:13:33;6.15;;;1.55;;
54937;SDS011;52756;52.826;6.214;2023-09-19T15:16:03;3.53;;;1.27;;
54937;SDS011;52756;52.826;6.214;2023-09-19T15:21:03;9.40;;;1.33;;
54937;SDS011;52756;52.826;6.214;2023-09-19T15:23:29;3.40;;;1.20;;
54937;SDS011;52756;52.826;6.214;2023-09-19T15:25:57;7.10;;;1.85;;
54937;SDS011;52756;52.826;6.214;2023-09-19T15:28:23;5.70;;;1.92;;
54937;SDS011;52756;52.826;6.214;2023-09-19T15:30:49;6.78;;;1.50;;
54937;SDS011;52756;52.826;6.214;2023-09-19T15:33:15;8.02;;;2.00;;
54937;SDS011;52756;52.826;6.214;2023-09-19T15:35:42;5.50;;;2.33;;
54937;SDS011;52756;52.826;6.214;2023-09-19T15:38:08;11.68;;;2.03;;
54937;SDS011;52756;52.826;6.214;2023-09-19T15:40:33;4.25;;;1.63;;
54937;SDS011;52756;52.826;6.214;2023-09-19T15:42:59;4.45;;;1.48;;
54937;SDS011;52756;52.826;6.214;2023-09-19T15:45:28;4.03;;;1.60;;
54937;SDS011;52756;52.826;6.214;2023-09-19T15:47:53;6.25;;;1.80;;
54937;SDS011;52756;52.826;6.214;2023-09-19T15:50:19;3.38;;;1.30;;
54937;SDS011;52756;52.826;6.214;2023-09-19T15:52:46;5.63;;;1.88;;
54937;SDS011;52756;52.826;6.214;2023-09-19T15:55:19;4.60;;;1.70;;
54937;SDS011;52756;52.826;6.214;2023-09-19T15:57:45;6.50;;;1.60;;
54937;SDS011;52756;52.826;6.214;2023-09-19T16:00:11;6.68;;;1.67;;